createdAt,value
2022-09-13T00:00:25.734Z,2.60
2022-09-13T00:02:57.650Z,2.87
2022-09-13T00:05:29.951Z,3.03
2022-09-13T00:08:01.850Z,3.27
2022-09-13T00:10:41.105Z,3.10
2022-09-13T00:13:15.043Z,2.60
2022-09-13T00:15:48.795Z,3.67
2022-09-13T00:18:20.513Z,2.90
2022-09-13T00:20:52.266Z,2.93
2022-09-13T00:23:23.936Z,3.50
2022-09-13T00:26:12.091Z,2.97
2022-09-13T00:28:48.530Z,3.57
2022-09-13T00:31:21.566Z,2.70
2022-09-13T00:33:53.900Z,3.27
2022-09-13T00:36:25.751Z,3.70
2022-09-13T00:38:57.991Z,3.00
2022-09-13T00:41:30.054Z,3.70
2022-09-13T00:44:02.783Z,3.30
2022-09-13T00:46:49.755Z,3.87
2022-09-13T00:49:30.309Z,3.53
2022-09-13T00:52:06.390Z,3.70
2022-09-13T00:54:53.043Z,3.50
2022-09-13T00:57:25.834Z,3.50
2022-09-13T01:00:14.358Z,3.70
2022-09-13T01:02:57.511Z,3.07
2022-09-13T01:05:34.086Z,3.33
2022-09-13T01:08:15.929Z,3.80
2022-09-13T01:10:50.962Z,3.10
2022-09-13T01:13:26.339Z,3.73
2022-09-13T01:15:59.219Z,3.63
2022-09-13T01:18:31.436Z,3.73
2022-09-13T01:21:27.623Z,3.57
2022-09-13T01:24:41.000Z,3.90
2022-09-13T01:27:31.282Z,3.77
2022-09-13T01:30:11.582Z,3.13
2022-09-13T01:33:10.894Z,2.97
2022-09-13T01:36:01.133Z,3.77
2022-09-13T01:38:48.852Z,4.03
2022-09-13T01:41:36.015Z,3.77
2022-09-13T01:44:25.490Z,4.03
2022-09-13T01:47:30.051Z,4.30
2022-09-13T01:50:43.135Z,4.37
2022-09-13T01:53:42.913Z,4.67
2022-09-13T01:56:26.649Z,4.30
2022-09-13T01:59:33.614Z,4.33
2022-09-13T02:02:13.365Z,4.00
2022-09-13T02:04:54.311Z,3.90
2022-09-13T02:07:40.926Z,4.17
2022-09-13T02:10:32.023Z,4.00
2022-09-13T02:13:10.059Z,4.73
2022-09-13T02:15:53.360Z,4.17
2022-09-13T02:18:33.552Z,5.30
2022-09-13T02:21:13.401Z,4.23
2022-09-13T02:23:51.565Z,4.17
2022-09-13T02:26:25.488Z,4.47
2022-09-13T02:29:01.654Z,4.17
2022-09-13T02:31:46.178Z,4.60
2022-09-13T02:34:27.935Z,4.77
2022-09-13T02:37:02.209Z,4.80
2022-09-13T02:39:38.105Z,4.50
2022-09-13T02:42:28.191Z,5.07
2022-09-13T02:45:00.784Z,4.50
2022-09-13T02:47:54.904Z,5.10
2022-09-13T02:50:49.541Z,4.53
2022-09-13T02:53:38.926Z,4.63
2022-09-13T02:56:18.728Z,4.20
2022-09-13T02:59:13.162Z,4.30
2022-09-13T03:01:52.615Z,4.60
2022-09-13T03:04:24.595Z,4.63
2022-09-13T03:06:56.383Z,4.43
2022-09-13T03:09:28.784Z,4.60
2022-09-13T03:12:09.710Z,5.67
2022-09-13T03:14:55.437Z,4.30
2022-09-13T03:17:40.844Z,4.57
2022-09-13T03:20:26.967Z,4.20
2022-09-13T03:23:17.849Z,5.07
2022-09-13T03:26:34.473Z,4.77
2022-09-13T03:29:33.447Z,4.90
2022-09-13T03:32:26.423Z,5.77
2022-09-13T03:35:10.125Z,5.80
2022-09-13T03:37:43.518Z,4.70
2022-09-13T03:40:21.492Z,4.47
2022-09-13T03:43:22.850Z,3.93
2022-09-13T03:46:01.055Z,4.30
2022-09-13T03:48:37.898Z,4.57
2022-09-13T03:51:11.233Z,5.60
2022-09-13T03:53:48.436Z,4.47
2022-09-13T03:56:20.771Z,4.73
2022-09-13T03:58:52.533Z,5.07
2022-09-13T04:01:25.385Z,4.27
2022-09-13T04:03:57.282Z,4.83
2022-09-13T04:06:28.966Z,4.80
2022-09-13T04:09:00.827Z,4.40
2022-09-13T04:11:32.640Z,4.27
2022-09-13T04:14:05.295Z,4.37
2022-09-13T04:16:36.974Z,4.47
2022-09-13T04:19:08.691Z,5.07
2022-09-13T04:21:40.409Z,4.50
2022-09-13T04:24:12.075Z,5.20
2022-09-13T04:26:44.706Z,5.03
2022-09-13T04:29:17.256Z,4.70
2022-09-13T04:31:50.441Z,4.90
2022-09-13T04:34:23.146Z,4.50
2022-09-13T04:36:55.362Z,4.70
2022-09-13T04:39:27.194Z,4.50
2022-09-13T04:41:59.542Z,4.97
2022-09-13T04:44:31.656Z,4.63
2022-09-13T04:47:03.404Z,5.33
2022-09-13T04:49:35.195Z,4.97
2022-09-13T04:52:06.907Z,5.73
2022-09-13T04:54:38.554Z,5.00
2022-09-13T04:57:10.344Z,4.90
2022-09-13T04:59:42.278Z,4.60
2022-09-13T05:02:14.105Z,5.00
2022-09-13T05:04:45.919Z,5.20
2022-09-13T05:07:17.596Z,5.10
2022-09-13T05:09:49.639Z,5.17
2022-09-13T05:12:21.273Z,4.63
2022-09-13T05:14:52.975Z,5.40
2022-09-13T05:17:24.634Z,5.47
2022-09-13T05:19:56.345Z,5.10
2022-09-13T05:22:28.028Z,5.00
2022-09-13T05:24:59.703Z,5.20
2022-09-13T05:27:31.395Z,4.70
2022-09-13T05:30:03.754Z,4.63
2022-09-13T05:32:35.444Z,4.70
2022-09-13T05:35:07.526Z,4.63
2022-09-13T05:37:39.444Z,4.40
2022-09-13T05:40:12.457Z,5.33
2022-09-13T05:42:44.532Z,4.20
2022-09-13T05:45:16.220Z,4.43
2022-09-13T05:47:51.450Z,4.40
2022-09-13T05:50:54.240Z,4.73
2022-09-13T05:53:14.939Z,4.10
2022-09-13T05:55:46.691Z,4.57
2022-09-13T05:58:18.380Z,5.00
2022-09-13T06:00:55.365Z,4.87
2022-09-13T06:03:27.094Z,5.40
2022-09-13T06:05:58.879Z,5.03
2022-09-13T06:08:32.394Z,4.83
2022-09-13T06:11:09.982Z,5.10
2022-09-13T06:13:44.943Z,4.70
2022-09-13T06:16:17.275Z,4.83
2022-09-13T06:18:49.182Z,4.70
2022-09-13T06:21:27.102Z,6.03
2022-09-13T06:24:00.583Z,5.20
2022-09-13T06:26:32.854Z,5.50
2022-09-13T06:29:04.528Z,4.43
2022-09-13T06:31:38.723Z,4.50
2022-09-13T06:34:13.124Z,5.17
2022-09-13T06:36:44.806Z,4.97
2022-09-13T06:39:16.459Z,4.67
2022-09-13T06:41:48.288Z,5.67
2022-09-13T06:44:20.009Z,5.33
2022-09-13T06:46:52.006Z,4.73
2022-09-13T06:49:24.130Z,4.90
2022-09-13T06:51:55.803Z,6.93
2022-09-13T06:54:27.608Z,6.00
2022-09-13T06:56:59.267Z,6.47
2022-09-13T06:59:31.236Z,6.10
2022-09-13T07:02:03.118Z,6.00
2022-09-13T07:04:34.991Z,5.03
2022-09-13T07:07:06.648Z,5.23
2022-09-13T07:09:38.380Z,5.27
2022-09-13T07:12:10.065Z,5.83
2022-09-13T07:14:41.746Z,5.10
2022-09-13T07:17:13.502Z,5.00
2022-09-13T07:19:45.245Z,6.37
2022-09-13T07:22:16.898Z,6.00
2022-09-13T07:24:48.563Z,4.60
2022-09-13T07:27:20.358Z,5.10
2022-09-13T07:29:52.027Z,4.90
2022-09-13T07:32:24.874Z,5.20
2022-09-13T07:34:56.553Z,5.13
2022-09-13T07:37:28.294Z,5.53
2022-09-13T07:40:00.076Z,3.83
2022-09-13T07:42:31.797Z,4.40
2022-09-13T07:45:03.662Z,4.77
2022-09-13T07:47:35.327Z,4.57
2022-09-13T07:50:07.412Z,4.03
2022-09-13T07:52:40.202Z,4.77
2022-09-13T07:55:11.858Z,4.63
2022-09-13T07:57:43.598Z,3.77
2022-09-13T08:00:15.415Z,4.33
2022-09-13T08:02:47.180Z,5.20
2022-09-13T08:05:18.855Z,4.60
2022-09-13T08:07:50.540Z,3.70
2022-09-13T08:10:22.219Z,4.83
2022-09-13T08:12:54.271Z,4.20
2022-09-13T08:15:26.353Z,3.93
2022-09-13T08:17:58.059Z,4.20
2022-09-13T08:20:29.728Z,4.00
2022-09-13T08:23:01.380Z,4.00
2022-09-13T08:25:36.788Z,3.80
2022-09-13T08:28:10.912Z,4.60
2022-09-13T08:30:43.590Z,4.00
2022-09-13T08:33:15.483Z,3.50
2022-09-13T08:35:52.598Z,4.70
2022-09-13T08:38:24.455Z,3.90
2022-09-13T08:41:32.678Z,3.87
2022-09-13T08:44:26.848Z,4.00
2022-09-13T08:47:05.815Z,3.77
2022-09-13T08:49:45.395Z,4.10
2022-09-13T08:52:30.870Z,4.27
2022-09-13T08:55:13.178Z,3.50
2022-09-13T08:57:55.330Z,3.70
2022-09-13T09:00:40.932Z,3.20
2022-09-13T09:03:35.764Z,3.70
2022-09-13T09:06:13.993Z,2.90
2022-09-13T09:08:51.850Z,3.90
2022-09-13T09:11:42.090Z,3.33
2022-09-13T09:14:25.721Z,3.70
2022-09-13T09:17:04.967Z,3.20
2022-09-13T09:19:40.646Z,3.37
2022-09-13T09:22:19.772Z,3.40
2022-09-13T09:24:56.110Z,3.00
2022-09-13T09:27:30.877Z,3.10
2022-09-13T09:30:02.656Z,3.05
2022-09-13T09:33:09.795Z,3.10
2022-09-13T09:36:01.152Z,2.47
2022-09-13T09:38:37.371Z,2.20
2022-09-13T09:41:25.293Z,2.33
2022-09-13T09:44:07.022Z,2.00
2022-09-13T09:46:41.502Z,2.92
2022-09-13T09:49:35.135Z,3.88
2022-09-13T09:52:11.462Z,2.08
2022-09-13T09:54:43.322Z,2.30
2022-09-13T09:57:15.211Z,2.10
2022-09-13T09:59:47.529Z,1.90
2022-09-13T10:02:21.457Z,2.03
2022-09-13T10:04:58.779Z,1.55
2022-09-13T10:07:33.205Z,1.70
2022-09-13T10:10:22.825Z,1.70
2022-09-13T10:12:56.914Z,2.00
2022-09-13T10:15:35.674Z,1.80
2022-09-13T10:18:40.337Z,1.20
2022-09-13T10:21:18.436Z,1.48
2022-09-13T10:23:50.922Z,1.70
2022-09-13T10:26:26.704Z,1.52
2022-09-13T10:29:08.976Z,1.80
2022-09-13T10:31:44.966Z,1.65
2022-09-13T10:34:28.427Z,1.85
2022-09-13T10:37:12.563Z,1.70
2022-09-13T10:40:06.203Z,1.90
2022-09-13T10:42:37.979Z,2.25
2022-09-13T10:45:23.409Z,2.45
2022-09-13T10:48:00.669Z,2.05
2022-09-13T10:50:33.314Z,2.40
2022-09-13T10:53:25.118Z,1.60
2022-09-13T10:55:56.800Z,1.65
2022-09-13T10:58:28.995Z,1.90
2022-09-13T11:01:40.961Z,1.75
2022-09-13T11:04:12.678Z,2.17
2022-09-13T11:07:10.305Z,1.80
2022-09-13T11:10:05.631Z,2.22
2022-09-13T11:12:56.312Z,2.20
2022-09-13T11:15:58.128Z,2.13
2022-09-13T11:18:45.013Z,2.17
2022-09-13T11:21:52.554Z,1.92
2022-09-13T11:24:55.284Z,2.03
2022-09-13T11:27:56.534Z,2.13
2022-09-13T11:30:33.302Z,2.58
2022-09-13T11:33:23.626Z,1.60
2022-09-13T11:36:24.305Z,1.90
2022-09-13T11:39:31.025Z,2.05
2022-09-13T11:42:28.888Z,4.15
2022-09-13T11:45:21.693Z,5.05
2022-09-13T11:48:08.843Z,8.57
2022-09-13T11:51:06.527Z,4.95
2022-09-13T11:54:15.687Z,8.63
2022-09-13T11:56:52.354Z,9.40
2022-09-13T11:59:42.263Z,4.77
2022-09-13T12:02:31.983Z,4.90
2022-09-13T12:05:22.946Z,4.10
2022-09-13T12:08:13.735Z,2.93
2022-09-13T12:10:53.540Z,3.90
2022-09-13T12:13:31.180Z,1.67
2022-09-13T12:16:08.621Z,1.60
2022-09-13T12:18:44.513Z,2.00
2022-09-13T12:21:20.221Z,1.80
2022-09-13T12:24:00.734Z,1.77
2022-09-13T12:26:50.811Z,2.00
2022-09-13T12:29:25.467Z,1.67
2022-09-13T12:32:02.353Z,2.10
2022-09-13T12:34:49.709Z,1.60
2022-09-13T12:37:24.155Z,1.80
2022-09-13T12:40:12.157Z,2.20
2022-09-13T12:43:05.066Z,2.00
2022-09-13T12:45:58.345Z,1.90
2022-09-13T12:48:39.288Z,1.60
2022-09-13T12:51:32.518Z,1.90
2022-09-13T12:54:22.315Z,1.90
2022-09-13T12:57:10.334Z,1.80
2022-09-13T13:00:15.948Z,2.20
2022-09-13T13:02:56.952Z,1.73
2022-09-13T13:05:33.102Z,1.80
2022-09-13T13:08:24.279Z,1.90
2022-09-13T13:11:06.878Z,1.87
2022-09-13T13:13:40.814Z,2.30
2022-09-13T13:16:23.595Z,2.30
2022-09-13T13:19:06.221Z,2.27
2022-09-13T13:21:39.663Z,2.40
2022-09-13T13:24:18.390Z,2.20
2022-09-13T13:26:58.087Z,2.60
2022-09-13T13:29:31.900Z,5.10
2022-09-13T13:32:10.110Z,2.00
2022-09-13T13:34:47.394Z,1.70
2022-09-13T13:37:19.022Z,1.90
2022-09-13T13:40:25.628Z,2.13
2022-09-13T13:43:30.543Z,1.63
2022-09-13T13:46:11.496Z,1.40
2022-09-13T13:48:43.991Z,1.63
2022-09-13T13:51:27.279Z,4.63
2022-09-13T13:54:24.867Z,6.90
2022-09-13T13:56:57.819Z,10.67
2022-09-13T13:59:33.523Z,1.90
2022-09-13T14:02:06.121Z,1.50
2022-09-13T14:04:54.221Z,1.80
2022-09-13T14:07:44.640Z,1.90
2022-09-13T14:10:42.089Z,1.40
2022-09-13T14:13:42.633Z,1.73
2022-09-13T14:16:39.018Z,1.10
2022-09-13T14:19:29.244Z,1.53
2022-09-13T14:22:20.249Z,1.57
2022-09-13T14:24:54.043Z,1.30
2022-09-13T14:27:26.987Z,1.47
2022-09-13T14:30:03.371Z,1.07
2022-09-13T14:32:45.414Z,1.00
2022-09-13T14:35:31.143Z,1.53
2022-09-13T14:38:25.110Z,1.50
2022-09-13T14:41:02.175Z,1.50
2022-09-13T14:43:33.827Z,1.70
2022-09-13T14:46:13.328Z,1.50
2022-09-13T14:48:51.388Z,1.20
2022-09-13T14:51:47.146Z,7.83
2022-09-13T14:54:27.598Z,2.03
2022-09-13T14:57:02.892Z,1.20
2022-09-13T14:59:41.506Z,1.17
2022-09-13T15:02:25.922Z,1.20
2022-09-13T15:05:00.587Z,0.90
2022-09-13T15:07:35.494Z,1.37
2022-09-13T15:10:25.526Z,1.30
2022-09-13T15:13:06.462Z,1.50
2022-09-13T15:15:45.380Z,1.50
2022-09-13T15:18:25.923Z,1.40
2022-09-13T15:21:06.387Z,1.30
2022-09-13T15:23:41.421Z,1.23
2022-09-13T15:26:25.583Z,1.30
2022-09-13T15:29:04.194Z,2.00
2022-09-13T15:31:36.195Z,1.40
2022-09-13T15:34:17.314Z,1.50
2022-09-13T15:37:02.393Z,2.30
2022-09-13T15:40:01.741Z,2.13
2022-09-13T15:42:33.872Z,1.60
2022-09-13T15:45:06.005Z,1.30
2022-09-13T15:47:37.913Z,1.37
2022-09-13T15:50:38.611Z,1.50
2022-09-13T15:53:12.830Z,1.60
2022-09-13T15:55:50.974Z,1.40
2022-09-13T15:58:22.670Z,1.57
2022-09-13T16:00:54.540Z,1.20
2022-09-13T16:03:26.442Z,1.30
2022-09-13T16:05:58.541Z,1.53
2022-09-13T16:08:30.486Z,1.80
2022-09-13T16:11:02.296Z,1.70
2022-09-13T16:13:34.775Z,1.80
2022-09-13T16:16:06.881Z,1.50
2022-09-13T16:18:39.825Z,1.40
2022-09-13T16:21:11.492Z,2.20
2022-09-13T16:23:43.159Z,2.03
2022-09-13T16:26:14.995Z,1.23
2022-09-13T16:28:46.799Z,1.40
2022-09-13T16:31:20.183Z,1.53
2022-09-13T16:33:51.932Z,1.70
2022-09-13T16:36:23.931Z,1.27
2022-09-13T16:38:56.792Z,1.40
2022-09-13T16:41:28.564Z,1.40
2022-09-13T16:44:01.933Z,1.37
2022-09-13T16:46:33.840Z,1.70
2022-09-13T16:49:05.623Z,1.40
2022-09-13T16:51:37.951Z,1.67
2022-09-13T16:54:09.628Z,1.67
2022-09-13T16:56:41.522Z,1.70
2022-09-13T16:59:13.235Z,1.40
2022-09-13T17:01:45.111Z,1.40
2022-09-13T17:04:17.816Z,1.70
2022-09-13T17:06:49.572Z,1.50
2022-09-13T17:09:23.687Z,1.63
2022-09-13T17:11:55.362Z,2.40
2022-09-13T17:14:27.307Z,1.83
2022-09-13T17:16:59.319Z,1.60
2022-09-13T17:19:35.684Z,1.53
2022-09-13T17:22:09.777Z,1.50
2022-09-13T17:24:41.651Z,1.57
2022-09-13T17:27:13.326Z,1.60
2022-09-13T17:29:45.082Z,1.60
2022-09-13T17:32:16.805Z,2.00
2022-09-13T17:34:48.519Z,1.77
2022-09-13T17:37:20.266Z,1.60
2022-09-13T17:39:52.274Z,1.40
2022-09-13T17:42:24.027Z,1.70
2022-09-13T17:44:55.759Z,2.00
2022-09-13T17:47:27.435Z,1.80
2022-09-13T17:49:59.155Z,1.73
2022-09-13T17:52:34.748Z,2.60
2022-09-13T17:55:07.216Z,2.20
2022-09-13T17:57:39.790Z,2.70
2022-09-13T18:00:13.103Z,2.10
2022-09-13T18:02:45.152Z,1.90
2022-09-13T18:05:16.876Z,2.57
2022-09-13T18:07:48.558Z,2.43
2022-09-13T18:10:45.210Z,2.30
2022-09-13T18:13:11.876Z,2.60
2022-09-13T18:15:43.780Z,1.90
2022-09-13T18:18:15.520Z,2.30
2022-09-13T18:20:47.295Z,2.40
2022-09-13T18:23:18.969Z,2.60
2022-09-13T18:26:04.708Z,2.33
2022-09-13T18:28:38.883Z,2.10
2022-09-13T18:31:17.689Z,2.60
2022-09-13T18:33:58.705Z,2.40
2022-09-13T18:36:33.377Z,2.73
2022-09-13T18:39:07.227Z,2.80
2022-09-13T18:41:40.685Z,2.73
2022-09-13T18:44:13.136Z,3.03
2022-09-13T18:46:46.111Z,2.77
2022-09-13T18:49:19.672Z,2.60
2022-09-13T18:51:51.523Z,3.00
2022-09-13T18:54:23.191Z,3.23
2022-09-13T18:56:55.254Z,3.40
2022-09-13T18:59:27.959Z,3.13
2022-09-13T19:01:59.731Z,2.90
2022-09-13T19:04:33.451Z,2.70
2022-09-13T19:07:07.015Z,2.80
2022-09-13T19:09:38.745Z,2.90
2022-09-13T19:12:10.413Z,3.00
2022-09-13T19:14:42.069Z,3.50
2022-09-13T19:17:13.821Z,3.30
2022-09-13T19:19:47.019Z,3.20
2022-09-13T19:22:18.940Z,3.40
2022-09-13T19:24:52.436Z,3.40
2022-09-13T19:27:24.325Z,3.27
2022-09-13T19:29:56.374Z,2.97
2022-09-13T19:32:28.129Z,3.93
2022-09-13T19:34:59.866Z,3.73
2022-09-13T19:37:32.071Z,3.00
2022-09-13T19:40:04.652Z,3.50
2022-09-13T19:42:36.457Z,4.20
2022-09-13T19:45:08.363Z,3.43
2022-09-13T19:50:31.782Z,3.90
2022-09-13T19:53:03.455Z,2.90
2022-09-13T19:55:35.203Z,3.13
2022-09-13T19:58:06.837Z,2.63
2022-09-13T20:00:39.005Z,3.07
2022-09-13T20:03:10.691Z,3.37
2022-09-13T20:05:42.463Z,3.17
2022-09-13T20:08:14.092Z,3.20
2022-09-13T20:10:45.758Z,2.43
2022-09-13T20:13:17.399Z,3.20
2022-09-13T20:15:49.481Z,2.80
2022-09-13T20:18:21.219Z,2.93
2022-09-13T20:20:57.523Z,2.80
2022-09-13T20:23:29.156Z,3.33
2022-09-13T20:26:01.245Z,3.07
2022-09-13T20:28:33.116Z,3.10
2022-09-13T20:31:05.006Z,3.07
2022-09-13T20:33:38.912Z,2.60
2022-09-13T20:36:13.136Z,3.23
2022-09-13T20:38:48.235Z,2.60
2022-09-13T20:41:20.861Z,3.40
2022-09-13T20:43:53.609Z,2.53
2022-09-13T20:46:25.920Z,3.20
2022-09-13T20:48:57.790Z,3.33
2022-09-13T20:51:33.929Z,3.40
2022-09-13T20:54:06.743Z,3.27
2022-09-13T20:56:38.603Z,3.10
2022-09-13T20:59:10.342Z,3.97
2022-09-13T21:01:42.055Z,3.03
2022-09-13T21:04:14.031Z,3.40
2022-09-13T21:07:04.259Z,3.37
2022-09-13T21:09:35.976Z,3.50
2022-09-13T21:12:08.042Z,3.90
2022-09-13T21:14:39.848Z,3.20
2022-09-13T21:17:12.138Z,3.60
2022-09-13T21:19:43.816Z,3.77
2022-09-13T21:22:15.787Z,3.03
2022-09-13T21:24:47.434Z,3.53
2022-09-13T21:27:19.292Z,3.50
2022-09-13T21:29:51.069Z,3.53
2022-09-13T21:32:22.763Z,3.63
2022-09-13T21:34:54.413Z,3.30
2022-09-13T21:37:26.759Z,2.90
2022-09-13T21:39:58.498Z,4.20
2022-09-13T21:42:31.434Z,4.33
2022-09-13T21:45:03.269Z,3.23
2022-09-13T21:47:35.021Z,3.20
2022-09-13T21:50:07.352Z,3.57
2022-09-13T21:52:38.995Z,3.70
2022-09-13T21:55:10.719Z,4.30
2022-09-13T21:57:44.312Z,3.73
2022-09-13T22:00:16.211Z,4.03
2022-09-13T22:02:47.978Z,3.60
2022-09-13T22:05:19.675Z,3.67
2022-09-13T22:07:51.322Z,3.57
2022-09-13T22:10:23.031Z,3.23
2022-09-13T22:12:54.767Z,3.93
2022-09-13T22:15:26.421Z,4.07
2022-09-13T22:17:58.088Z,3.40
2022-09-13T22:20:29.855Z,4.47
2022-09-13T22:23:01.524Z,3.53
2022-09-13T22:25:33.258Z,4.07
2022-09-13T22:28:04.942Z,3.97
2022-09-13T22:30:36.635Z,3.87
2022-09-13T22:33:08.394Z,3.10
2022-09-13T22:35:40.322Z,4.00
2022-09-13T22:38:12.059Z,3.73
2022-09-13T22:40:44.313Z,4.70
2022-09-13T22:43:16.002Z,4.00
2022-09-13T22:45:47.666Z,3.80
2022-09-13T22:48:20.809Z,4.33
2022-09-13T22:50:53.367Z,4.17
2022-09-13T22:53:26.744Z,4.23
2022-09-13T22:56:06.898Z,4.00
2022-09-13T22:58:39.227Z,3.90
2022-09-13T23:01:17.275Z,3.67
2022-09-13T23:03:50.030Z,3.90
2022-09-13T23:06:24.720Z,3.70
2022-09-13T23:09:00.053Z,3.90
2022-09-13T23:11:37.385Z,3.73
2022-09-13T23:14:12.450Z,4.00
2022-09-13T23:16:46.509Z,3.77
2022-09-13T23:19:21.909Z,4.17
2022-09-13T23:21:54.015Z,3.93
2022-09-13T23:24:25.745Z,4.40
2022-09-13T23:26:57.575Z,3.70
2022-09-13T23:29:29.223Z,3.70
2022-09-13T23:32:01.055Z,3.90
2022-09-13T23:34:32.734Z,4.53
2022-09-13T23:37:04.729Z,3.70
2022-09-13T23:39:36.472Z,3.50
2022-09-13T23:42:08.172Z,3.40
2022-09-13T23:44:39.929Z,4.27
2022-09-13T23:47:11.618Z,4.37
2022-09-13T23:49:44.178Z,4.00
2022-09-13T23:52:16.003Z,3.53
2022-09-13T23:54:47.656Z,3.70
2022-09-13T23:57:19.660Z,4.60
2022-09-13T23:59:51.357Z,3.93
